Northern Highway — 3EVE6 — position and weather

sailwx.info

Track history (hours):
 
Tides and Currents Weather Stations Pressure Air Temp Water Temp Dewpoint Dewpoint Depression Visibility Wind Speed Wind Dir Waves Ship Positions

Northern Highway

Last reported at 2015-Apr-27 22:08 UTC. Time now 2015-Apr-28 00:33 UTC.
Position N 34°47' E 139°35'.

Length 188 m; draft 7.6 m.

Type: Cargo ship. MMSI: 371608000.

Date/timePositionNaut miles runAvg speedWind from/ knotsBaromVisibWave heightAir tempDewpointWater temp
2015-Apr-27 22:08N 34°47' E 139°35'1016.5
2015-Apr-27 21:33N 34°57' E 139°38'1515.4
2015-Apr-27 20:33N 35°11' E 139°45'1110.8
2015-Apr-27 19:33N 35°22' E 139°42'6 5.8
2015-Apr-27 18:32N 35°27' E 139°41'0 0.0
2015-Apr-27 17:32N 35°27' E 139°41'0 0.0
2015-Apr-27 16:32N 35°27' E 139°41'0 0.0
2015-Apr-27 15:32N 35°27' E 139°41'0 0.0
2015-Apr-27 14:32N 35°27' E 139°41'0 0.0
2015-Apr-27 13:32N 35°27' E 139°41'0 0.0
2015-Apr-27 12:32N 35°27' E 139°41'0 0.0
2015-Apr-27 11:32N 35°27' E 139°41'0 0.0
2015-Apr-27 10:32N 35°27' E 139°41'0 0.0
2015-Apr-27 09:32N 35°27' E 139°41'0 0.0
2015-Apr-27 08:32N 35°27' E 139°41'2 2.5
2015-Apr-27 07:33N 35°26' E 139°43'0 0.5
2015-Apr-27 06:32N 35°26' E 139°44'0 0.0
2015-Apr-27 05:32N 35°26' E 139°44'0 0.0
2015-Apr-27 04:32N 35°26' E 139°44'0 0.0
2015-Apr-27 03:32N 35°26' E 139°44'0 0.0
2015-Apr-27 02:32N 35°26' E 139°44'0 0.0
2015-Apr-27 01:32N 35°26' E 139°44'0 0.1
2015-Apr-27 00:32N 35°26' E 139°44'9 9.4
2015-Apr-26 23:33N 35°17' E 139°46'1010.4
2015-Apr-26 22:33N 35°06' E 139°46'1313.1
2015-Apr-26 21:33N 34°54' E 139°41'1614.2
2015-Apr-26 20:28N 34°38' E 139°41'1 1.0
2015-Apr-26 19:22N 34°37' E 139°40'2 0.9
2015-Apr-26 16:28N 34°35' E 139°40'2 1.9
2015-Apr-26 15:13N 34°34' E 139°37'1015.8
2015-Apr-26 14:34N 34°35' E 139°24'5116.3
2015-Apr-26 11:26N 34°27' E 138°23'173 6.3
2015-Apr-25 08:04N 33°59' E 134°56'917.2
2015-Apr-25 07:33N 34°08' E 134°57'1515.0
2015-Apr-25 06:33N 34°23' E 135°01'1716.7
2015-Apr-25 05:33N 34°32' E 135°18'4 4.1
2015-Apr-25 04:28N 34°31' E 135°23'0 0.0
2015-Apr-25 03:04N 34°31' E 135°23'0 0.0
2015-Apr-25 02:10N 34°31' E 135°23'0 0.0
2015-Apr-25 01:28N 34°31' E 135°23'0 0.0
2015-Apr-25 00:10N 34°31' E 135°23'0 0.0
2015-Apr-24 23:28N 34°31' E 135°23'1 0.7
2015-Apr-24 22:33N 34°31' E 135°23'1 1.2
2015-Apr-24 21:32N 34°32' E 135°22'0 0.0
2015-Apr-24 20:32N 34°32' E 135°22'0 0.0
2015-Apr-24 19:32N 34°32' E 135°22'0 0.0
2015-Apr-24 18:32N 34°32' E 135°22'0 0.0
2015-Apr-24 17:32N 34°32' E 135°22'0 0.0
2015-Apr-24 16:32N 34°32' E 135°22'0 0.0
2015-Apr-24 15:32N 34°32' E 135°22'0 0.0
2015-Apr-24 14:32N 34°32' E 135°22'0 0.0
2015-Apr-24 13:32N 34°32' E 135°22'0 0.0
2015-Apr-24 12:32N 34°32' E 135°22'0 0.0
2015-Apr-24 11:14N 34°32' E 135°22'0 0.0
2015-Apr-24 10:32N 34°32' E 135°22'0 0.0
2015-Apr-24 09:32N 34°32' E 135°22'0 0.0
2015-Apr-24 08:33N 34°32' E 135°22'0 0.0
2015-Apr-24 07:33N 34°32' E 135°22'2 2.4
2015-Apr-24 06:33N 34°34' E 135°22'4 4.1
2015-Apr-24 05:28N 34°38' E 135°24'0 0.0
2015-Apr-24 04:28N 34°38' E 135°24'0 0.0
2015-Apr-24 03:28N 34°38' E 135°24'0 0.0
2015-Apr-24 02:28N 34°38' E 135°24'0 0.0
2015-Apr-24 01:28N 34°38' E 135°24'0 0.0
2015-Apr-24 00:10N 34°38' E 135°24'0 0.0
2015-Apr-23 23:28N 34°38' E 135°24'0 0.0
2015-Apr-23 22:28N 34°38' E 135°24'0 0.3
2015-Apr-23 21:34N 34°38' E 135°24'7 6.9
2015-Apr-23 20:34N 34°35' E 135°16'1110.5
2015-Apr-23 19:34N 34°35' E 135°04'1313.2
2015-Apr-23 18:33N 34°32' E 134°48'1716.7
2015-Apr-23 17:33N 34°26' E 134°29'182 7.2
2015-Apr-22 16:18N 34°01' E 130°51'28 5.5
2015-Apr-22 11:13N 33°53' E 130°19'1116.2
2015-Apr-22 10:33N 33°43' E 130°15'9 9.3
2015-Apr-22 09:33N 33°37' E 130°24'0 0.0
2015-Apr-22 08:33N 33°37' E 130°24'0 0.0
2015-Apr-22 07:30N 33°37' E 130°24'0 0.0
2015-Apr-22 06:30N 33°37' E 130°24'0 0.0
2015-Apr-22 05:30N 33°37' E 130°24'0 0.0
2015-Apr-22 04:33N 33°37' E 130°24'0 0.0
2015-Apr-22 03:33N 33°37' E 130°24'0 0.0
2015-Apr-22 02:30N 33°37' E 130°24'0 0.0
2015-Apr-22 01:24N 33°37' E 130°24'0 0.0
2015-Apr-22 00:30N 33°37' E 130°24'0 0.0
2015-Apr-21 23:33N 33°37' E 130°24'0 0.0
2015-Apr-21 22:33N 33°37' E 130°24'0 0.0
2015-Apr-21 21:33N 33°37' E 130°24'0 0.0
2015-Apr-21 20:33N 33°37' E 130°24'0 0.0
2015-Apr-21 19:33N 33°37' E 130°24'0 0.0
2015-Apr-21 18:24N 33°37' E 130°24'0 0.0
2015-Apr-21 17:30N 33°37' E 130°24'0 0.0
2015-Apr-21 16:33N 33°37' E 130°24'0 0.0
2015-Apr-21 15:33N 33°37' E 130°24'0 0.0
2015-Apr-21 14:33N 33°37' E 130°24'0 0.0
2015-Apr-21 13:33N 33°37' E 130°24'0 0.0
2015-Apr-21 12:33N 33°37' E 130°24'0 0.0
2015-Apr-21 11:33N 33°37' E 130°24'0 0.0
2015-Apr-21 10:33N 33°37' E 130°24'0 0.0
2015-Apr-21 09:33N 33°37' E 130°24'0 0.0
2015-Apr-21 08:33N 33°37' E 130°24'1 0.7
2015-Apr-21 07:33N 33°37' E 130°24'7 6.6
2015-Apr-21 06:33N 33°39' E 130°16'0 0.0
2015-Apr-21 05:31N 33°39' E 130°16'0 0.1
2015-Apr-21 04:33N 33°39' E 130°16'0 0.0
2015-Apr-21 03:30N 33°39' E 130°16'0 0.1
2015-Apr-21 02:34N 33°39' E 130°16'0 0.0
2015-Apr-21 01:33N 33°39' E 130°16'0 0.0
2015-Apr-21 00:33N 33°39' E 130°16'0 0.1
2015-Apr-20 23:33N 33°39' E 130°16'0 0.0
2015-Apr-20 22:30N 33°39' E 130°16'0 0.1
2015-Apr-20 21:33N 33°39' E 130°16'0 0.0
2015-Apr-20 20:33N 33°39' E 130°16'0 0.1
2015-Apr-20 19:33N 33°39' E 130°16'0 0.0
2015-Apr-20 18:33N 33°39' E 130°16'0 0.1
2015-Apr-20 17:33N 33°39' E 130°16'0 0.0
2015-Apr-20 16:33N 33°39' E 130°16'0 0.0
2015-Apr-20 15:27N 33°39' E 130°16'0 0.0
2015-Apr-20 14:33N 33°39' E 130°16'0 0.0
2015-Apr-20 13:33N 33°39' E 130°16'0 0.0
2015-Apr-20 12:33N 33°39' E 130°16'0 0.0
2015-Apr-20 11:33N 33°39' E 130°16'0 0.0
2015-Apr-20 10:27N 33°39' E 130°16'0 0.1
2015-Apr-20 09:33N 33°39' E 130°16'0 0.1
2015-Apr-20 08:30N 33°39' E 130°16'0 0.1
2015-Apr-20 07:30N 33°39' E 130°16'0 0.0
2015-Apr-20 06:30N 33°39' E 130°16'0 0.1
2015-Apr-20 05:30N 33°39' E 130°16'0 0.4
2015-Apr-20 04:33N 33°39' E 130°16'6 6.3
2015-Apr-20 03:33N 33°46' E 130°16'1212.7
2015-Apr-20 02:33N 33°57' E 130°23'1615.8
2015-Apr-20 01:31N 34°02' E 130°41'  
Track history (hours):
 
Tides and Currents Weather Stations Pressure Air Temp Water Temp Dewpoint Dewpoint Depression Visibility Wind Speed Wind Dir Waves Ship Positions

Northern Highway

Last reported at 2015-Apr-27 22:08 UTC. Time now 2015-Apr-28 00:33 UTC.
Position N 34°47' E 139°35'.

Length 188 m; draft 7.6 m.

Type: Cargo ship. MMSI: 371608000.

Date/timePositionNaut miles runAvg speedWind from/ knotsBaromVisibWave heightAir tempDewpointWater temp
2015-Apr-27 22:08N 34°47' E 139°35'1016.5
2015-Apr-27 21:33N 34°57' E 139°38'1515.4
2015-Apr-27 20:33N 35°11' E 139°45'1110.8
2015-Apr-27 19:33N 35°22' E 139°42'6 5.8
2015-Apr-27 18:32N 35°27' E 139°41'0 0.0
2015-Apr-27 17:32N 35°27' E 139°41'0 0.0
2015-Apr-27 16:32N 35°27' E 139°41'0 0.0
2015-Apr-27 15:32N 35°27' E 139°41'0 0.0
2015-Apr-27 14:32N 35°27' E 139°41'0 0.0
2015-Apr-27 13:32N 35°27' E 139°41'0 0.0
2015-Apr-27 12:32N 35°27' E 139°41'0 0.0
2015-Apr-27 11:32N 35°27' E 139°41'0 0.0
2015-Apr-27 10:32N 35°27' E 139°41'0 0.0
2015-Apr-27 09:32N 35°27' E 139°41'0 0.0
2015-Apr-27 08:32N 35°27' E 139°41'2 2.5
2015-Apr-27 07:33N 35°26' E 139°43'0 0.5
2015-Apr-27 06:32N 35°26' E 139°44'0 0.0
2015-Apr-27 05:32N 35°26' E 139°44'0 0.0
2015-Apr-27 04:32N 35°26' E 139°44'0 0.0
2015-Apr-27 03:32N 35°26' E 139°44'0 0.0
2015-Apr-27 02:32N 35°26' E 139°44'0 0.0
2015-Apr-27 01:32N 35°26' E 139°44'0 0.1
2015-Apr-27 00:32N 35°26' E 139°44'9 9.4
2015-Apr-26 23:33N 35°17' E 139°46'1010.4
2015-Apr-26 22:33N 35°06' E 139°46'1313.1
2015-Apr-26 21:33N 34°54' E 139°41'1614.2
2015-Apr-26 20:28N 34°38' E 139°41'1 1.0
2015-Apr-26 19:22N 34°37' E 139°40'2 0.9
2015-Apr-26 16:28N 34°35' E 139°40'2 1.9
2015-Apr-26 15:13N 34°34' E 139°37'1015.8
2015-Apr-26 14:34N 34°35' E 139°24'5116.3
2015-Apr-26 11:26N 34°27' E 138°23'173 6.3
2015-Apr-25 08:04N 33°59' E 134°56'917.2
2015-Apr-25 07:33N 34°08' E 134°57'1515.0
2015-Apr-25 06:33N 34°23' E 135°01'1716.7
2015-Apr-25 05:33N 34°32' E 135°18'4 4.1
2015-Apr-25 04:28N 34°31' E 135°23'0 0.0
2015-Apr-25 03:04N 34°31' E 135°23'0 0.0
2015-Apr-25 02:10N 34°31' E 135°23'0 0.0
2015-Apr-25 01:28N 34°31' E 135°23'0 0.0
2015-Apr-25 00:10N 34°31' E 135°23'0 0.0
2015-Apr-24 23:28N 34°31' E 135°23'1 0.7
2015-Apr-24 22:33N 34°31' E 135°23'1 1.2
2015-Apr-24 21:32N 34°32' E 135°22'0 0.0
2015-Apr-24 20:32N 34°32' E 135°22'0 0.0
2015-Apr-24 19:32N 34°32' E 135°22'0 0.0
2015-Apr-24 18:32N 34°32' E 135°22'0 0.0
2015-Apr-24 17:32N 34°32' E 135°22'0 0.0
2015-Apr-24 16:32N 34°32' E 135°22'0 0.0
2015-Apr-24 15:32N 34°32' E 135°22'0 0.0
2015-Apr-24 14:32N 34°32' E 135°22'0 0.0
2015-Apr-24 13:32N 34°32' E 135°22'0 0.0
2015-Apr-24 12:32N 34°32' E 135°22'0 0.0
2015-Apr-24 11:14N 34°32' E 135°22'0 0.0
2015-Apr-24 10:32N 34°32' E 135°22'0 0.0
2015-Apr-24 09:32N 34°32' E 135°22'0 0.0
2015-Apr-24 08:33N 34°32' E 135°22'0 0.0
2015-Apr-24 07:33N 34°32' E 135°22'2 2.4
2015-Apr-24 06:33N 34°34' E 135°22'4 4.1
2015-Apr-24 05:28N 34°38' E 135°24'0 0.0
2015-Apr-24 04:28N 34°38' E 135°24'0 0.0
2015-Apr-24 03:28N 34°38' E 135°24'0 0.0
2015-Apr-24 02:28N 34°38' E 135°24'0 0.0
2015-Apr-24 01:28N 34°38' E 135°24'0 0.0
2015-Apr-24 00:10N 34°38' E 135°24'0 0.0
2015-Apr-23 23:28N 34°38' E 135°24'0 0.0
2015-Apr-23 22:28N 34°38' E 135°24'0 0.3
2015-Apr-23 21:34N 34°38' E 135°24'7 6.9
2015-Apr-23 20:34N 34°35' E 135°16'1110.5
2015-Apr-23 19:34N 34°35' E 135°04'1313.2
2015-Apr-23 18:33N 34°32' E 134°48'1716.7
2015-Apr-23 17:33N 34°26' E 134°29'182 7.2
2015-Apr-22 16:18N 34°01' E 130°51'28 5.5
2015-Apr-22 11:13N 33°53' E 130°19'1116.2
2015-Apr-22 10:33N 33°43' E 130°15'9 9.3
2015-Apr-22 09:33N 33°37' E 130°24'0 0.0
2015-Apr-22 08:33N 33°37' E 130°24'0 0.0
2015-Apr-22 07:30N 33°37' E 130°24'0 0.0
2015-Apr-22 06:30N 33°37' E 130°24'0 0.0
2015-Apr-22 05:30N 33°37' E 130°24'0 0.0
2015-Apr-22 04:33N 33°37' E 130°24'0 0.0
2015-Apr-22 03:33N 33°37' E 130°24'0 0.0
2015-Apr-22 02:30N 33°37' E 130°24'0 0.0
2015-Apr-22 01:24N 33°37' E 130°24'0 0.0
2015-Apr-22 00:30N 33°37' E 130°24'0 0.0
2015-Apr-21 23:33N 33°37' E 130°24'0 0.0
2015-Apr-21 22:33N 33°37' E 130°24'0 0.0
2015-Apr-21 21:33N 33°37' E 130°24'0 0.0
2015-Apr-21 20:33N 33°37' E 130°24'0 0.0
2015-Apr-21 19:33N 33°37' E 130°24'0 0.0
2015-Apr-21 18:24N 33°37' E 130°24'0 0.0
2015-Apr-21 17:30N 33°37' E 130°24'0 0.0
2015-Apr-21 16:33N 33°37' E 130°24'0 0.0
2015-Apr-21 15:33N 33°37' E 130°24'0 0.0
2015-Apr-21 14:33N 33°37' E 130°24'0 0.0
2015-Apr-21 13:33N 33°37' E 130°24'0 0.0
2015-Apr-21 12:33N 33°37' E 130°24'0 0.0
2015-Apr-21 11:33N 33°37' E 130°24'0 0.0
2015-Apr-21 10:33N 33°37' E 130°24'0 0.0
2015-Apr-21 09:33N 33°37' E 130°24'0 0.0
2015-Apr-21 08:33N 33°37' E 130°24'1 0.7
2015-Apr-21 07:33N 33°37' E 130°24'7 6.6
2015-Apr-21 06:33N 33°39' E 130°16'0 0.0
2015-Apr-21 05:31N 33°39' E 130°16'0 0.1
2015-Apr-21 04:33N 33°39' E 130°16'0 0.0
2015-Apr-21 03:30N 33°39' E 130°16'0 0.1
2015-Apr-21 02:34N 33°39' E 130°16'0 0.0
2015-Apr-21 01:33N 33°39' E 130°16'0 0.0
2015-Apr-21 00:33N 33°39' E 130°16'0 0.1
2015-Apr-20 23:33N 33°39' E 130°16'0 0.0
2015-Apr-20 22:30N 33°39' E 130°16'0 0.1
2015-Apr-20 21:33N 33°39' E 130°16'0 0.0
2015-Apr-20 20:33N 33°39' E 130°16'0 0.1
2015-Apr-20 19:33N 33°39' E 130°16'0 0.0
2015-Apr-20 18:33N 33°39' E 130°16'0 0.1
2015-Apr-20 17:33N 33°39' E 130°16'0 0.0
2015-Apr-20 16:33N 33°39' E 130°16'0 0.0
2015-Apr-20 15:27N 33°39' E 130°16'0 0.0
2015-Apr-20 14:33N 33°39' E 130°16'0 0.0
2015-Apr-20 13:33N 33°39' E 130°16'0 0.0
2015-Apr-20 12:33N 33°39' E 130°16'0 0.0
2015-Apr-20 11:33N 33°39' E 130°16'0 0.0
2015-Apr-20 10:27N 33°39' E 130°16'0 0.1
2015-Apr-20 09:33N 33°39' E 130°16'0 0.1
2015-Apr-20 08:30N 33°39' E 130°16'0 0.1
2015-Apr-20 07:30N 33°39' E 130°16'0 0.0
2015-Apr-20 06:30N 33°39' E 130°16'0 0.1
2015-Apr-20 05:30N 33°39' E 130°16'0 0.4
2015-Apr-20 04:33N 33°39' E 130°16'6 6.3
2015-Apr-20 03:33N 33°46' E 130°16'1212.7
2015-Apr-20 02:33N 33°57' E 130°23'1615.8
2015-Apr-20 01:31N 34°02' E 130°41'  

Dump ship's entire track history